Dickinson's Hourly Summary for Sunday, March 19, 2017
Hour Temp
(f)
RH
(%)
Solar Rad.
(MJ/m2)
Rainfall
(in)
Wind
(mph)
3/19/2017 12:00 AM 67 99 0 0 0.82
3/19/2017 1:00 AM 67 99 0 0 1.83
3/19/2017 2:00 AM 67 99 0 0 1.45
3/19/2017 3:00 AM 66 99 0 0 0.61
3/19/2017 4:00 AM 65 99 0 0 0
3/19/2017 5:00 AM 63 99 0 0 0
3/19/2017 6:00 AM 62 99 0 0 0
3/19/2017 7:00 AM 61 99 0 0 0
3/19/2017 8:00 AM 61 99 0.04 0 0
3/19/2017 9:00 AM 63 99 0.44 0 0.05
3/19/2017 10:00 AM 68 99 1.33 0 0.18
3/19/2017 11:00 AM 73 70 1.43 0 1.3
3/19/2017 12:00 PM 76 55 2.33 0 1.73
3/19/2017 1:00 PM 79 52 2.97 0 3.18
3/19/2017 2:00 PM 78 53 2.44 0 5.61
3/19/2017 3:00 PM 78 60 2.88 0 6.37
3/19/2017 4:00 PM 77 64 2.27 0 6.23
3/19/2017 5:00 PM 76 67 1.7 0 6.09
3/19/2017 6:00 PM 76 65 1.15 0 6.51
3/19/2017 7:00 PM 73 73 0.35 0 5.26
3/19/2017 8:00 PM 71 81 0.03 0 4.37
3/19/2017 9:00 PM 69 88 0 0 3.05
3/19/2017 10:00 PM 68 97 0 0 2.77
3/19/2017 11:00 PM 68 99 0 0 2.52
Data Summary 69 83 19.36 0.00 2.50